sensor_id;sensor_type;location;lat;lon;timestamp;temperature;humidity
10304;DHT22;5197;48.152;8.590;2023-03-31T00:02:12;9.20;12.60
10304;DHT22;5197;48.152;8.590;2023-03-31T00:04:40;9.30;12.70
10304;DHT22;5197;48.152;8.590;2023-03-31T00:07:15;9.30;12.50
10304;DHT22;5197;48.152;8.590;2023-03-31T00:09:42;9.40;12.20
10304;DHT22;5197;48.152;8.590;2023-03-31T00:12:13;9.40;12.00
10304;DHT22;5197;48.152;8.590;2023-03-31T00:14:41;9.50;11.90
10304;DHT22;5197;48.152;8.590;2023-03-31T00:17:09;9.50;11.70
10304;DHT22;5197;48.152;8.590;2023-03-31T00:19:38;9.60;11.50
10304;DHT22;5197;48.152;8.590;2023-03-31T00:22:06;9.60;11.20
10304;DHT22;5197;48.152;8.590;2023-03-31T00:24:33;9.60;11.00
10304;DHT22;5197;48.152;8.590;2023-03-31T00:27:02;9.60;10.90
10304;DHT22;5197;48.152;8.590;2023-03-31T00:29:30;9.70;10.80
10304;DHT22;5197;48.152;8.590;2023-03-31T00:31:57;9.70;10.80
10304;DHT22;5197;48.152;8.590;2023-03-31T00:34:26;9.70;10.80
10304;DHT22;5197;48.152;8.590;2023-03-31T00:36:53;9.70;10.70
10304;DHT22;5197;48.152;8.590;2023-03-31T00:39:25;9.60;10.60
10304;DHT22;5197;48.152;8.590;2023-03-31T00:41:54;9.70;10.60
10304;DHT22;5197;48.152;8.590;2023-03-31T00:44:22;9.70;10.60
10304;DHT22;5197;48.152;8.590;2023-03-31T00:47:14;9.70;10.50
10304;DHT22;5197;48.152;8.590;2023-03-31T00:49:49;9.70;10.40
10304;DHT22;5197;48.152;8.590;2023-03-31T00:52:27;9.70;10.70
10304;DHT22;5197;48.152;8.590;2023-03-31T00:54:59;9.70;10.60
10304;DHT22;5197;48.152;8.590;2023-03-31T00:57:29;9.70;10.70
10304;DHT22;5197;48.152;8.590;2023-03-31T01:00:01;9.70;10.70
10304;DHT22;5197;48.152;8.590;2023-03-31T01:02:44;9.80;10.70
10304;DHT22;5197;48.152;8.590;2023-03-31T01:05:32;9.80;10.70
10304;DHT22;5197;48.152;8.590;2023-03-31T01:08:00;9.80;10.60
10304;DHT22;5197;48.152;8.590;2023-03-31T01:10:28;9.80;10.60
10304;DHT22;5197;48.152;8.590;2023-03-31T01:13:18;9.80;10.70
10304;DHT22;5197;48.152;8.590;2023-03-31T01:15:45;9.70;10.40
10304;DHT22;5197;48.152;8.590;2023-03-31T01:18:13;9.80;10.80
10304;DHT22;5197;48.152;8.590;2023-03-31T01:35:35;10.00;10.20
10304;DHT22;5197;48.152;8.590;2023-03-31T01:41:09;10.00;11.20
10304;DHT22;5197;48.152;8.590;2023-03-31T01:43:52;9.90;12.20
10304;DHT22;5197;48.152;8.590;2023-03-31T01:46:40;9.90;12.90
10304;DHT22;5197;48.152;8.590;2023-03-31T01:49:24;9.90;13.10
10304;DHT22;5197;48.152;8.590;2023-03-31T01:55:06;9.80;14.00
10304;DHT22;5197;48.152;8.590;2023-03-31T01:57:44;9.80;14.20
10304;DHT22;5197;48.152;8.590;2023-03-31T02:00:15;9.70;14.20
10304;DHT22;5197;48.152;8.590;2023-03-31T02:05:20;9.70;14.90
10304;DHT22;5197;48.152;8.590;2023-03-31T02:07:56;9.70;15.20
10304;DHT22;5197;48.152;8.590;2023-03-31T02:10:25;9.70;15.50
10304;DHT22;5197;48.152;8.590;2023-03-31T02:12:56;9.70;15.80
10304;DHT22;5197;48.152;8.590;2023-03-31T02:15:27;9.70;15.90
10304;DHT22;5197;48.152;8.590;2023-03-31T02:17:57;9.70;16.10
10304;DHT22;5197;48.152;8.590;2023-03-31T02:20:26;9.70;16.30
10304;DHT22;5197;48.152;8.590;2023-03-31T02:22:55;9.70;16.40
10304;DHT22;5197;48.152;8.590;2023-03-31T02:25:32;9.70;16.50
10304;DHT22;5197;48.152;8.590;2023-03-31T02:28:08;9.70;16.60
10304;DHT22;5197;48.152;8.590;2023-03-31T02:30:48;9.70;16.90
10304;DHT22;5197;48.152;8.590;2023-03-31T02:33:17;9.60;17.10
10304;DHT22;5197;48.152;8.590;2023-03-31T02:35:44;9.60;17.40
10304;DHT22;5197;48.152;8.590;2023-03-31T02:38:11;9.50;17.60
10304;DHT22;5197;48.152;8.590;2023-03-31T02:40:38;9.40;17.90
10304;DHT22;5197;48.152;8.590;2023-03-31T02:43:05;9.50;18.20
10304;DHT22;5197;48.152;8.590;2023-03-31T02:45:43;9.40;18.50
10304;DHT22;5197;48.152;8.590;2023-03-31T02:50:58;9.40;18.70
10304;DHT22;5197;48.152;8.590;2023-03-31T03:05:05;9.10;20.30
10304;DHT22;5197;48.152;8.590;2023-03-31T03:15:47;9.00;20.90
10304;DHT22;5197;48.152;8.590;2023-03-31T03:18:15;9.00;20.90
10304;DHT22;5197;48.152;8.590;2023-03-31T03:20:42;9.00;20.90
10304;DHT22;5197;48.152;8.590;2023-03-31T03:23:14;8.90;20.80
10304;DHT22;5197;48.152;8.590;2023-03-31T03:25:42;8.90;20.80
10304;DHT22;5197;48.152;8.590;2023-03-31T03:28:09;8.80;20.70
10304;DHT22;5197;48.152;8.590;2023-03-31T03:30:36;8.80;20.70
10304;DHT22;5197;48.152;8.590;2023-03-31T03:33:03;8.80;20.70
10304;DHT22;5197;48.152;8.590;2023-03-31T03:35:33;8.80;20.80
10304;DHT22;5197;48.152;8.590;2023-03-31T03:38:00;8.70;20.70
10304;DHT22;5197;48.152;8.590;2023-03-31T03:40:27;8.60;20.60
10304;DHT22;5197;48.152;8.590;2023-03-31T03:42:54;8.60;20.60
10304;DHT22;5197;48.152;8.590;2023-03-31T03:45:20;8.50;20.60
10304;DHT22;5197;48.152;8.590;2023-03-31T03:47:47;8.50;20.50
10304;DHT22;5197;48.152;8.590;2023-03-31T03:50:14;8.50;20.60
10304;DHT22;5197;48.152;8.590;2023-03-31T03:52:42;8.50;20.60
10304;DHT22;5197;48.152;8.590;2023-03-31T03:55:09;8.40;20.50
10304;DHT22;5197;48.152;8.590;2023-03-31T03:57:37;8.40;20.40
10304;DHT22;5197;48.152;8.590;2023-03-31T04:00:05;8.40;20.40
10304;DHT22;5197;48.152;8.590;2023-03-31T04:02:38;8.40;20.40
10304;DHT22;5197;48.152;8.590;2023-03-31T04:05:06;8.40;20.60
10304;DHT22;5197;48.152;8.590;2023-03-31T04:07:33;8.40;20.50
10304;DHT22;5197;48.152;8.590;2023-03-31T04:10:00;8.40;20.50
10304;DHT22;5197;48.152;8.590;2023-03-31T04:12:27;8.50;20.60
10304;DHT22;5197;48.152;8.590;2023-03-31T04:14:54;8.50;20.60
10304;DHT22;5197;48.152;8.590;2023-03-31T04:17:20;8.50;20.70
10304;DHT22;5197;48.152;8.590;2023-03-31T04:20:04;8.50;21.20
10304;DHT22;5197;48.152;8.590;2023-03-31T04:22:33;8.50;21.70
10304;DHT22;5197;48.152;8.590;2023-03-31T04:25:11;8.50;22.50
10304;DHT22;5197;48.152;8.590;2023-03-31T04:27:50;8.60;22.40
10304;DHT22;5197;48.152;8.590;2023-03-31T04:30:25;8.60;22.50
10304;DHT22;5197;48.152;8.590;2023-03-31T04:33:02;8.70;22.50
10304;DHT22;5197;48.152;8.590;2023-03-31T04:35:30;8.70;22.50
10304;DHT22;5197;48.152;8.590;2023-03-31T04:38:20;8.70;22.90
10304;DHT22;5197;48.152;8.590;2023-03-31T04:40:49;8.80;23.20
10304;DHT22;5197;48.152;8.590;2023-03-31T04:43:18;8.80;23.30
10304;DHT22;5197;48.152;8.590;2023-03-31T04:45:45;8.90;23.30
10304;DHT22;5197;48.152;8.590;2023-03-31T04:48:12;8.90;23.30
10304;DHT22;5197;48.152;8.590;2023-03-31T04:50:39;9.10;23.70
10304;DHT22;5197;48.152;8.590;2023-03-31T04:53:06;9.00;23.70
10304;DHT22;5197;48.152;8.590;2023-03-31T04:55:33;9.00;24.30
10304;DHT22;5197;48.152;8.590;2023-03-31T04:58:00;9.00;24.30
10304;DHT22;5197;48.152;8.590;2023-03-31T05:00:27;9.00;24.30
10304;DHT22;5197;48.152;8.590;2023-03-31T05:02:54;9.60;24.40
10304;DHT22;5197;48.152;8.590;2023-03-31T05:05:21;9.10;24.20
10304;DHT22;5197;48.152;8.590;2023-03-31T05:07:48;9.10;24.20
10304;DHT22;5197;48.152;8.590;2023-03-31T05:10:34;9.10;24.40
10304;DHT22;5197;48.152;8.590;2023-03-31T05:13:00;9.10;24.80
10304;DHT22;5197;48.152;8.590;2023-03-31T05:15:27;9.00;24.80
10304;DHT22;5197;48.152;8.590;2023-03-31T05:17:54;9.10;25.10
10304;DHT22;5197;48.152;8.590;2023-03-31T05:20:23;9.10;25.20
10304;DHT22;5197;48.152;8.590;2023-03-31T05:22:50;9.10;25.20
10304;DHT22;5197;48.152;8.590;2023-03-31T05:25:17;9.10;25.20
10304;DHT22;5197;48.152;8.590;2023-03-31T05:27:46;9.10;25.30
10304;DHT22;5197;48.152;8.590;2023-03-31T05:30:14;9.10;25.40
10304;DHT22;5197;48.152;8.590;2023-03-31T05:32:42;9.10;26.60
10304;DHT22;5197;48.152;8.590;2023-03-31T05:35:09;9.10;25.70
10304;DHT22;5197;48.152;8.590;2023-03-31T05:37:36;9.10;25.80
10304;DHT22;5197;48.152;8.590;2023-03-31T05:40:04;9.10;26.00
10304;DHT22;5197;48.152;8.590;2023-03-31T05:42:31;9.20;26.20
10304;DHT22;5197;48.152;8.590;2023-03-31T05:44:58;9.10;26.40
10304;DHT22;5197;48.152;8.590;2023-03-31T05:47:25;9.10;26.60
10304;DHT22;5197;48.152;8.590;2023-03-31T05:49:52;9.10;26.70
10304;DHT22;5197;48.152;8.590;2023-03-31T05:52:19;9.10;26.90
10304;DHT22;5197;48.152;8.590;2023-03-31T05:54:46;9.10;27.30
10304;DHT22;5197;48.152;8.590;2023-03-31T05:57:12;9.10;27.30
10304;DHT22;5197;48.152;8.590;2023-03-31T05:59:39;9.10;27.50
10304;DHT22;5197;48.152;8.590;2023-03-31T06:02:09;9.10;27.70
10304;DHT22;5197;48.152;8.590;2023-03-31T06:04:37;9.10;27.80
10304;DHT22;5197;48.152;8.590;2023-03-31T06:07:05;9.10;28.00
10304;DHT22;5197;48.152;8.590;2023-03-31T06:09:32;9.10;28.20
10304;DHT22;5197;48.152;8.590;2023-03-31T06:11:58;9.10;28.50
10304;DHT22;5197;48.152;8.590;2023-03-31T06:14:26;9.10;28.80
10304;DHT22;5197;48.152;8.590;2023-03-31T06:16:53;9.10;29.10
10304;DHT22;5197;48.152;8.590;2023-03-31T06:19:23;9.10;29.40
10304;DHT22;5197;48.152;8.590;2023-03-31T06:21:50;9.20;29.70
10304;DHT22;5197;48.152;8.590;2023-03-31T06:24:17;9.20;30.00
10304;DHT22;5197;48.152;8.590;2023-03-31T06:26:44;9.20;30.50
10304;DHT22;5197;48.152;8.590;2023-03-31T06:29:11;9.20;31.20
10304;DHT22;5197;48.152;8.590;2023-03-31T06:31:38;9.30;31.60
10304;DHT22;5197;48.152;8.590;2023-03-31T06:34:04;9.40;31.60
10304;DHT22;5197;48.152;8.590;2023-03-31T06:36:32;9.40;32.10
10304;DHT22;5197;48.152;8.590;2023-03-31T06:38:58;9.40;32.30
10304;DHT22;5197;48.152;8.590;2023-03-31T06:41:25;9.40;34.80
10304;DHT22;5197;48.152;8.590;2023-03-31T06:43:52;9.20;45.70
10304;DHT22;5197;48.152;8.590;2023-03-31T06:46:19;8.70;31.50
10304;DHT22;5197;48.152;8.590;2023-03-31T06:48:46;8.60;34.80
10304;DHT22;5197;48.152;8.590;2023-03-31T06:51:13;8.60;33.30
10304;DHT22;5197;48.152;8.590;2023-03-31T06:53:40;8.50;29.50
10304;DHT22;5197;48.152;8.590;2023-03-31T06:56:07;8.50;30.60
10304;DHT22;5197;48.152;8.590;2023-03-31T06:58:35;8.40;31.60
10304;DHT22;5197;48.152;8.590;2023-03-31T07:01:03;8.30;31.80
10304;DHT22;5197;48.152;8.590;2023-03-31T07:03:31;8.30;31.60
10304;DHT22;5197;48.152;8.590;2023-03-31T07:05:59;8.30;30.70
10304;DHT22;5197;48.152;8.590;2023-03-31T07:08:26;8.30;30.00
10304;DHT22;5197;48.152;8.590;2023-03-31T07:10:55;8.30;29.60
10304;DHT22;5197;48.152;8.590;2023-03-31T07:13:24;8.50;29.10
10304;DHT22;5197;48.152;8.590;2023-03-31T07:15:52;8.50;28.40
10304;DHT22;5197;48.152;8.590;2023-03-31T07:18:20;8.50;27.90
10304;DHT22;5197;48.152;8.590;2023-03-31T07:20:48;8.50;27.50
10304;DHT22;5197;48.152;8.590;2023-03-31T07:23:16;8.50;27.60
10304;DHT22;5197;48.152;8.590;2023-03-31T07:25:43;8.50;27.30
10304;DHT22;5197;48.152;8.590;2023-03-31T07:28:10;8.60;27.90
10304;DHT22;5197;48.152;8.590;2023-03-31T07:30:39;8.60;26.80
10304;DHT22;5197;48.152;8.590;2023-03-31T07:33:06;8.70;26.40
10304;DHT22;5197;48.152;8.590;2023-03-31T07:35:37;8.80;26.90
10304;DHT22;5197;48.152;8.590;2023-03-31T07:38:04;9.10;29.30
10304;DHT22;5197;48.152;8.590;2023-03-31T07:40:32;9.60;32.50
10304;DHT22;5197;48.152;8.590;2023-03-31T07:42:59;10.20;33.10
10304;DHT22;5197;48.152;8.590;2023-03-31T07:45:26;10.80;34.50
10304;DHT22;5197;48.152;8.590;2023-03-31T07:47:53;11.60;32.80
10304;DHT22;5197;48.152;8.590;2023-03-31T07:50:21;12.20;32.70
10304;DHT22;5197;48.152;8.590;2023-03-31T07:52:48;12.80;31.00
10304;DHT22;5197;48.152;8.590;2023-03-31T07:55:15;13.40;26.50
10304;DHT22;5197;48.152;8.590;2023-03-31T07:57:42;13.80;23.30
10304;DHT22;5197;48.152;8.590;2023-03-31T08:00:12;14.10;22.90
10304;DHT22;5197;48.152;8.590;2023-03-31T08:02:40;14.40;19.60
10304;DHT22;5197;48.152;8.590;2023-03-31T08:05:10;14.30;14.60
10304;DHT22;5197;48.152;8.590;2023-03-31T08:07:39;14.30;12.80
10304;DHT22;5197;48.152;8.590;2023-03-31T08:10:09;15.00;11.20
10304;DHT22;5197;48.152;8.590;2023-03-31T08:12:36;14.40;7.50
10304;DHT22;5197;48.152;8.590;2023-03-31T08:15:04;14.40;6.90
10304;DHT22;5197;48.152;8.590;2023-03-31T08:17:31;14.40;5.20
10304;DHT22;5197;48.152;8.590;2023-03-31T08:19:58;14.50;4.90
10304;DHT22;5197;48.152;8.590;2023-03-31T08:22:30;14.70;4.50
10304;DHT22;5197;48.152;8.590;2023-03-31T08:24:57;14.70;3.20
10304;DHT22;5197;48.152;8.590;2023-03-31T08:27:24;14.60;2.10
10304;DHT22;5197;48.152;8.590;2023-03-31T08:29:51;14.50;1.00
10304;DHT22;5197;48.152;8.590;2023-03-31T08:32:21;14.50;1.00
10304;DHT22;5197;48.152;8.590;2023-03-31T08:34:50;14.30;1.00
10304;DHT22;5197;48.152;8.590;2023-03-31T08:37:17;14.30;1.00
10304;DHT22;5197;48.152;8.590;2023-03-31T08:39:44;14.20;1.00
10304;DHT22;5197;48.152;8.590;2023-03-31T08:48:04;14.10;1.00
10304;DHT22;5197;48.152;8.590;2023-03-31T08:50:34;14.10;1.00
10304;DHT22;5197;48.152;8.590;2023-03-31T08:53:11;14.60;1.00
10304;DHT22;5197;48.152;8.590;2023-03-31T08:55:50;14.00;1.00
10304;DHT22;5197;48.152;8.590;2023-03-31T09:03:46;13.60;1.00
10304;DHT22;5197;48.152;8.590;2023-03-31T09:06:22;13.50;1.00
10304;DHT22;5197;48.152;8.590;2023-03-31T09:08:54;13.20;1.00
10304;DHT22;5197;48.152;8.590;2023-03-31T09:12:02;13.00;1.00
10304;DHT22;5197;48.152;8.590;2023-03-31T09:14:53;13.00;1.00
10304;DHT22;5197;48.152;8.590;2023-03-31T09:17:25;12.90;1.00
10304;DHT22;5197;48.152;8.590;2023-03-31T09:20:35;12.90;1.00
10304;DHT22;5197;48.152;8.590;2023-03-31T09:23:26;12.70;1.00
10304;DHT22;5197;48.152;8.590;2023-03-31T09:25:55;12.60;1.00
10304;DHT22;5197;48.152;8.590;2023-03-31T09:28:38;12.50;1.00
10304;DHT22;5197;48.152;8.590;2023-03-31T09:31:17;12.50;1.00
10304;DHT22;5197;48.152;8.590;2023-03-31T09:33:46;12.40;1.00
10304;DHT22;5197;48.152;8.590;2023-03-31T09:36:19;12.40;1.00
10304;DHT22;5197;48.152;8.590;2023-03-31T09:38:49;12.40;1.00
10304;DHT22;5197;48.152;8.590;2023-03-31T09:41:16;12.50;1.00
10304;DHT22;5197;48.152;8.590;2023-03-31T09:43:46;12.50;1.00
10304;DHT22;5197;48.152;8.590;2023-03-31T09:46:23;12.50;1.00
10304;DHT22;5197;48.152;8.590;2023-03-31T09:49:05;12.60;1.00
10304;DHT22;5197;48.152;8.590;2023-03-31T09:51:34;12.70;1.00
10304;DHT22;5197;48.152;8.590;2023-03-31T09:54:16;12.70;1.00
10304;DHT22;5197;48.152;8.590;2023-03-31T09:56:47;12.60;1.00
10304;DHT22;5197;48.152;8.590;2023-03-31T09:59:18;12.60;1.00
10304;DHT22;5197;48.152;8.590;2023-03-31T10:01:49;12.70;1.00
10304;DHT22;5197;48.152;8.590;2023-03-31T10:04:33;12.70;1.00
10304;DHT22;5197;48.152;8.590;2023-03-31T10:07:03;12.70;1.00
10304;DHT22;5197;48.152;8.590;2023-03-31T10:09:32;12.80;1.00
10304;DHT22;5197;48.152;8.590;2023-03-31T10:12:14;12.90;1.00
10304;DHT22;5197;48.152;8.590;2023-03-31T10:14:49;13.00;1.00
10304;DHT22;5197;48.152;8.590;2023-03-31T10:17:27;12.80;1.00
10304;DHT22;5197;48.152;8.590;2023-03-31T10:19:58;12.90;1.00
10304;DHT22;5197;48.152;8.590;2023-03-31T10:22:32;13.00;1.00
10304;DHT22;5197;48.152;8.590;2023-03-31T10:25:13;13.00;1.00
10304;DHT22;5197;48.152;8.590;2023-03-31T10:27:44;13.00;1.00
10304;DHT22;5197;48.152;8.590;2023-03-31T10:30:20;13.10;1.00
10304;DHT22;5197;48.152;8.590;2023-03-31T10:32:47;13.20;1.00
10304;DHT22;5197;48.152;8.590;2023-03-31T10:35:31;13.20;1.00
10304;DHT22;5197;48.152;8.590;2023-03-31T10:38:10;13.20;1.00
10304;DHT22;5197;48.152;8.590;2023-03-31T10:40:50;13.30;1.00
10304;DHT22;5197;48.152;8.590;2023-03-31T10:43:42;13.40;1.00
10304;DHT22;5197;48.152;8.590;2023-03-31T10:46:11;13.50;1.00
10304;DHT22;5197;48.152;8.590;2023-03-31T10:48:40;13.50;1.00
10304;DHT22;5197;48.152;8.590;2023-03-31T10:51:16;13.50;1.00
10304;DHT22;5197;48.152;8.590;2023-03-31T10:53:46;13.40;1.00
10304;DHT22;5197;48.152;8.590;2023-03-31T10:59:31;13.60;1.00
10304;DHT22;5197;48.152;8.590;2023-03-31T11:10:50;13.40;1.00
10304;DHT22;5197;48.152;8.590;2023-03-31T11:13:50;13.50;1.00
10304;DHT22;5197;48.152;8.590;2023-03-31T11:28:13;11.40;1.00
10304;DHT22;5197;48.152;8.590;2023-03-31T11:36:26;9.10;5.40
10304;DHT22;5197;48.152;8.590;2023-03-31T11:41:51;8.60;13.10
10304;DHT22;5197;48.152;8.590;2023-03-31T11:44:18;8.60;14.00
10304;DHT22;5197;48.152;8.590;2023-03-31T11:46:53;8.50;12.30
10304;DHT22;5197;48.152;8.590;2023-03-31T11:49:36;8.50;14.90
10304;DHT22;5197;48.152;8.590;2023-03-31T11:52:16;8.50;14.70
10304;DHT22;5197;48.152;8.590;2023-03-31T11:54:52;8.30;15.10
10304;DHT22;5197;48.152;8.590;2023-03-31T11:57:35;8.20;14.30
10304;DHT22;5197;48.152;8.590;2023-03-31T12:00:20;8.20;18.80
10304;DHT22;5197;48.152;8.590;2023-03-31T12:05:39;8.60;15.30
10304;DHT22;5197;48.152;8.590;2023-03-31T12:08:12;8.90;12.00
10304;DHT22;5197;48.152;8.590;2023-03-31T12:10:46;9.10;10.30
10304;DHT22;5197;48.152;8.590;2023-03-31T12:13:48;9.40;8.70
10304;DHT22;5197;48.152;8.590;2023-03-31T12:16:23;9.80;7.60
10304;DHT22;5197;48.152;8.590;2023-03-31T12:19:10;10.10;5.80
10304;DHT22;5197;48.152;8.590;2023-03-31T12:21:44;10.40;5.10
10304;DHT22;5197;48.152;8.590;2023-03-31T12:24:13;10.60;3.90
10304;DHT22;5197;48.152;8.590;2023-03-31T12:31:56;11.00;1.50
10304;DHT22;5197;48.152;8.590;2023-03-31T12:34:25;11.00;1.00
10304;DHT22;5197;48.152;8.590;2023-03-31T12:45:36;10.20;1.00
10304;DHT22;5197;48.152;8.590;2023-03-31T12:51:00;10.50;1.00
10304;DHT22;5197;48.152;8.590;2023-03-31T12:53:55;10.60;1.00
10304;DHT22;5197;48.152;8.590;2023-03-31T12:56:26;10.80;1.00
10304;DHT22;5197;48.152;8.590;2023-03-31T12:58:53;10.90;1.00
10304;DHT22;5197;48.152;8.590;2023-03-31T13:01:23;11.00;1.00
10304;DHT22;5197;48.152;8.590;2023-03-31T13:04:19;11.10;1.00
10304;DHT22;5197;48.152;8.590;2023-03-31T13:06:52;11.30;1.00
10304;DHT22;5197;48.152;8.590;2023-03-31T13:12:12;11.30;1.00
10304;DHT22;5197;48.152;8.590;2023-03-31T13:14:42;11.40;1.00
10304;DHT22;5197;48.152;8.590;2023-03-31T13:19:56;11.70;1.00
10304;DHT22;5197;48.152;8.590;2023-03-31T13:22:43;11.80;1.00
10304;DHT22;5197;48.152;8.590;2023-03-31T13:28:07;11.70;1.00
10304;DHT22;5197;48.152;8.590;2023-03-31T13:33:23;11.30;1.00
10304;DHT22;5197;48.152;8.590;2023-03-31T13:35:56;11.20;1.00
10304;DHT22;5197;48.152;8.590;2023-03-31T13:38:52;11.30;1.00
10304;DHT22;5197;48.152;8.590;2023-03-31T13:47:45;10.70;1.00
10304;DHT22;5197;48.152;8.590;2023-03-31T13:53:17;9.70;9.50
10304;DHT22;5197;48.152;8.590;2023-03-31T14:01:31;9.00;13.20
10304;DHT22;5197;48.152;8.590;2023-03-31T14:04:15;8.90;14.60
10304;DHT22;5197;48.152;8.590;2023-03-31T14:07:05;8.80;16.10
10304;DHT22;5197;48.152;8.590;2023-03-31T14:09:35;8.80;17.70
10304;DHT22;5197;48.152;8.590;2023-03-31T14:12:25;8.80;16.70
10304;DHT22;5197;48.152;8.590;2023-03-31T14:14:55;8.90;17.10
10304;DHT22;5197;48.152;8.590;2023-03-31T14:17:40;9.00;16.40
10304;DHT22;5197;48.152;8.590;2023-03-31T14:20:21;9.00;15.80
10304;DHT22;5197;48.152;8.590;2023-03-31T14:26:46;8.80;13.20
10304;DHT22;5197;48.152;8.590;2023-03-31T14:29:34;8.70;13.70
10304;DHT22;5197;48.152;8.590;2023-03-31T14:32:21;8.60;13.10
10304;DHT22;5197;48.152;8.590;2023-03-31T14:35:27;8.60;12.30
10304;DHT22;5197;48.152;8.590;2023-03-31T14:37:56;8.60;11.40
10304;DHT22;5197;48.152;8.590;2023-03-31T14:40:26;8.70;11.30
10304;DHT22;5197;48.152;8.590;2023-03-31T14:42:53;8.70;10.80
10304;DHT22;5197;48.152;8.590;2023-03-31T14:45:23;9.80;11.70
10304;DHT22;5197;48.152;8.590;2023-03-31T14:50:40;8.70;11.30
10304;DHT22;5197;48.152;8.590;2023-03-31T14:53:14;8.70;11.40
10304;DHT22;5197;48.152;8.590;2023-03-31T14:55:42;8.90;12.20
10304;DHT22;5197;48.152;8.590;2023-03-31T14:58:44;9.20;11.40
10304;DHT22;5197;48.152;8.590;2023-03-31T15:01:13;9.40;10.80
10304;DHT22;5197;48.152;8.590;2023-03-31T15:03:43;9.60;10.40
10304;DHT22;5197;48.152;8.590;2023-03-31T15:06:11;9.70;10.00
10304;DHT22;5197;48.152;8.590;2023-03-31T15:08:38;9.80;9.90
10304;DHT22;5197;48.152;8.590;2023-03-31T15:11:13;9.80;9.70
10304;DHT22;5197;48.152;8.590;2023-03-31T15:13:50;9.80;9.40
10304;DHT22;5197;48.152;8.590;2023-03-31T15:16:42;9.70;9.10
10304;DHT22;5197;48.152;8.590;2023-03-31T15:19:14;9.70;8.70
10304;DHT22;5197;48.152;8.590;2023-03-31T15:21:42;9.70;9.10
10304;DHT22;5197;48.152;8.590;2023-03-31T15:24:11;9.60;8.90
10304;DHT22;5197;48.152;8.590;2023-03-31T15:26:46;9.60;8.70
10304;DHT22;5197;48.152;8.590;2023-03-31T15:29:34;9.60;8.50
10304;DHT22;5197;48.152;8.590;2023-03-31T15:32:03;9.70;8.40
10304;DHT22;5197;48.152;8.590;2023-03-31T15:34:33;9.80;7.90
10304;DHT22;5197;48.152;8.590;2023-03-31T15:37:03;9.90;7.60
10304;DHT22;5197;48.152;8.590;2023-03-31T15:39:32;9.90;7.00
10304;DHT22;5197;48.152;8.590;2023-03-31T15:42:03;9.90;6.40
10304;DHT22;5197;48.152;8.590;2023-03-31T15:44:37;9.90;6.30
10304;DHT22;5197;48.152;8.590;2023-03-31T15:49:32;10.00;5.00
10304;DHT22;5197;48.152;8.590;2023-03-31T15:51:59;9.90;5.40
10304;DHT22;5197;48.152;8.590;2023-03-31T15:54:35;9.90;5.50
10304;DHT22;5197;48.152;8.590;2023-03-31T15:57:04;10.00;4.20
10304;DHT22;5197;48.152;8.590;2023-03-31T15:59:52;10.00;4.10
10304;DHT22;5197;48.152;8.590;2023-03-31T16:02:26;10.00;3.10
10304;DHT22;5197;48.152;8.590;2023-03-31T16:04:57;9.90;4.50
10304;DHT22;5197;48.152;8.590;2023-03-31T16:07:27;9.90;4.50
10304;DHT22;5197;48.152;8.590;2023-03-31T16:10:05;9.90;4.30
10304;DHT22;5197;48.152;8.590;2023-03-31T16:12:39;9.90;4.30
10304;DHT22;5197;48.152;8.590;2023-03-31T16:15:12;9.90;4.40
10304;DHT22;5197;48.152;8.590;2023-03-31T16:17:41;9.90;4.50
10304;DHT22;5197;48.152;8.590;2023-03-31T16:20:23;9.90;4.90
10304;DHT22;5197;48.152;8.590;2023-03-31T16:22:55;9.90;4.60
10304;DHT22;5197;48.152;8.590;2023-03-31T16:25:26;10.00;3.90
10304;DHT22;5197;48.152;8.590;2023-03-31T16:27:59;10.00;3.80
10304;DHT22;5197;48.152;8.590;2023-03-31T16:30:36;10.10;3.80
10304;DHT22;5197;48.152;8.590;2023-03-31T16:33:09;10.10;3.40
10304;DHT22;5197;48.152;8.590;2023-03-31T16:35:39;10.10;3.40
10304;DHT22;5197;48.152;8.590;2023-03-31T16:38:07;10.10;3.40
10304;DHT22;5197;48.152;8.590;2023-03-31T16:40:40;10.10;3.00
10304;DHT22;5197;48.152;8.590;2023-03-31T16:45:47;10.10;2.60
10304;DHT22;5197;48.152;8.590;2023-03-31T16:48:16;10.10;2.40
10304;DHT22;5197;48.152;8.590;2023-03-31T16:50:45;10.10;2.50
10304;DHT22;5197;48.152;8.590;2023-03-31T16:53:14;10.00;2.50
10304;DHT22;5197;48.152;8.590;2023-03-31T16:55:41;10.00;2.50
10304;DHT22;5197;48.152;8.590;2023-03-31T16:58:08;9.90;3.00
10304;DHT22;5197;48.152;8.590;2023-03-31T17:00:35;9.80;3.10
10304;DHT22;5197;48.152;8.590;2023-03-31T17:03:03;9.80;3.40
10304;DHT22;5197;48.152;8.590;2023-03-31T17:05:31;9.70;3.40
10304;DHT22;5197;48.152;8.590;2023-03-31T17:07:59;9.70;3.60
10304;DHT22;5197;48.152;8.590;2023-03-31T17:10:26;9.60;3.40
10304;DHT22;5197;48.152;8.590;2023-03-31T17:12:53;9.60;3.60
10304;DHT22;5197;48.152;8.590;2023-03-31T17:15:21;9.50;3.50
10304;DHT22;5197;48.152;8.590;2023-03-31T17:17:49;9.50;3.90
10304;DHT22;5197;48.152;8.590;2023-03-31T17:20:16;9.50;4.00
10304;DHT22;5197;48.152;8.590;2023-03-31T17:22:43;9.50;4.10
10304;DHT22;5197;48.152;8.590;2023-03-31T17:25:10;9.40;4.30
10304;DHT22;5197;48.152;8.590;2023-03-31T17:27:37;9.40;4.30
10304;DHT22;5197;48.152;8.590;2023-03-31T17:30:05;9.40;4.30
10304;DHT22;5197;48.152;8.590;2023-03-31T17:32:32;9.40;4.50
10304;DHT22;5197;48.152;8.590;2023-03-31T17:34:59;9.40;4.50
10304;DHT22;5197;48.152;8.590;2023-03-31T17:37:25;9.40;4.50
10304;DHT22;5197;48.152;8.590;2023-03-31T17:39:52;9.40;4.50
10304;DHT22;5197;48.152;8.590;2023-03-31T17:42:20;9.40;4.50
10304;DHT22;5197;48.152;8.590;2023-03-31T17:44:47;9.40;4.50
10304;DHT22;5197;48.152;8.590;2023-03-31T17:47:17;9.40;4.50
10304;DHT22;5197;48.152;8.590;2023-03-31T17:49:45;9.30;5.20
10304;DHT22;5197;48.152;8.590;2023-03-31T17:52:12;9.30;5.70
10304;DHT22;5197;48.152;8.590;2023-03-31T17:54:39;9.30;6.00
10304;DHT22;5197;48.152;8.590;2023-03-31T17:57:06;9.20;6.20
10304;DHT22;5197;48.152;8.590;2023-03-31T17:59:33;9.20;6.60
10304;DHT22;5197;48.152;8.590;2023-03-31T18:02:01;9.80;7.70
10304;DHT22;5197;48.152;8.590;2023-03-31T18:04:28;9.00;7.50
10304;DHT22;5197;48.152;8.590;2023-03-31T18:06:55;9.00;7.80
10304;DHT22;5197;48.152;8.590;2023-03-31T18:09:22;8.90;8.10
10304;DHT22;5197;48.152;8.590;2023-03-31T18:11:50;8.90;8.20
10304;DHT22;5197;48.152;8.590;2023-03-31T18:14:17;8.80;8.30
10304;DHT22;5197;48.152;8.590;2023-03-31T18:16:44;8.80;8.20
10304;DHT22;5197;48.152;8.590;2023-03-31T18:19:11;8.80;8.20
10304;DHT22;5197;48.152;8.590;2023-03-31T18:21:38;8.70;8.20
10304;DHT22;5197;48.152;8.590;2023-03-31T18:24:05;8.70;8.20
10304;DHT22;5197;48.152;8.590;2023-03-31T18:26:32;8.70;8.20
10304;DHT22;5197;48.152;8.590;2023-03-31T18:28:59;8.60;8.20
10304;DHT22;5197;48.152;8.590;2023-03-31T18:31:26;8.70;8.10
10304;DHT22;5197;48.152;8.590;2023-03-31T18:33:53;8.60;8.20
10304;DHT22;5197;48.152;8.590;2023-03-31T18:36:22;8.60;8.20
10304;DHT22;5197;48.152;8.590;2023-03-31T18:38:49;8.60;8.30
10304;DHT22;5197;48.152;8.590;2023-03-31T18:41:17;8.60;8.50
10304;DHT22;5197;48.152;8.590;2023-03-31T18:43:45;8.50;8.60
10304;DHT22;5197;48.152;8.590;2023-03-31T18:46:18;8.50;8.60
10304;DHT22;5197;48.152;8.590;2023-03-31T18:48:45;8.50;8.60
10304;DHT22;5197;48.152;8.590;2023-03-31T18:51:12;8.50;8.70
10304;DHT22;5197;48.152;8.590;2023-03-31T18:53:40;8.60;8.70
10304;DHT22;5197;48.152;8.590;2023-03-31T18:56:07;8.50;8.80
10304;DHT22;5197;48.152;8.590;2023-03-31T18:58:34;8.50;8.70
10304;DHT22;5197;48.152;8.590;2023-03-31T19:01:02;8.50;9.00